createdAt,value
2023-04-03T00:00:58.102Z,3.73
2023-04-03T00:03:59.644Z,3.66
2023-04-03T00:07:01.231Z,3.53
2023-04-03T00:10:03.107Z,3.60
2023-04-03T00:13:05.404Z,3.69
2023-04-03T00:16:07.749Z,3.64
2023-04-03T00:19:09.302Z,3.89
2023-04-03T00:22:10.801Z,3.53
2023-04-03T00:25:12.366Z,3.73
2023-04-03T00:28:13.830Z,3.72
2023-04-03T00:31:58.446Z,3.70
2023-04-03T01:36:02.661Z,3.28
2023-04-03T01:50:09.493Z,3.24
2023-04-03T01:52:59.430Z,3.20
2023-04-03T03:58:23.933Z,2.23
2023-04-03T04:15:59.545Z,2.04
2023-04-03T06:47:16.802Z,2.24
2023-04-03T06:50:40.417Z,2.20
2023-04-03T07:37:07.509Z,3.40
2023-04-03T07:40:09.664Z,3.43
2023-04-03T07:43:11.131Z,3.39
2023-04-03T07:46:13.084Z,3.55
2023-04-03T07:49:14.804Z,3.64
2023-04-03T07:52:16.494Z,3.41
2023-04-03T07:55:17.993Z,3.58
2023-04-03T07:58:19.714Z,3.94
2023-04-03T08:01:21.615Z,3.99
2023-04-03T08:04:23.441Z,3.93
2023-04-03T08:07:25.335Z,3.99
2023-04-03T08:10:26.802Z,4.34
2023-04-03T08:13:28.322Z,4.40
2023-04-03T08:16:29.778Z,4.65
2023-04-03T08:19:31.705Z,4.78
2023-04-03T08:22:33.711Z,4.45
2023-04-03T08:25:39.174Z,4.46
2023-04-03T08:28:41.441Z,4.39
2023-04-03T08:31:43.817Z,4.64
2023-04-03T08:34:45.636Z,4.56
2023-04-03T08:37:47.322Z,4.92
2023-04-03T08:40:48.782Z,5.46
2023-04-03T08:44:08.792Z,5.22
2023-04-03T08:47:13.533Z,4.60
2023-04-03T08:50:17.593Z,4.59
2023-04-03T08:53:21.321Z,4.40
2023-04-03T08:56:23.911Z,5.85
2023-04-03T08:59:29.496Z,5.56
2023-04-03T09:02:34.913Z,4.97
2023-04-03T09:05:40.027Z,5.00
2023-04-03T09:08:45.423Z,5.51
2023-04-03T09:12:01.551Z,5.44
2023-04-03T09:15:31.400Z,5.60
2023-04-03T09:18:41.452Z,5.77
2023-04-03T09:21:43.435Z,5.61
2023-04-03T09:24:48.826Z,5.92
2023-04-03T09:27:50.726Z,5.71
2023-04-03T09:30:52.185Z,5.65
2023-04-03T09:33:55.795Z,5.70
2023-04-03T09:36:59.021Z,8.87
2023-04-03T09:40:01.675Z,8.99
2023-04-03T09:43:20.729Z,7.53
2023-04-03T09:46:32.235Z,7.18
2023-04-03T09:49:33.797Z,9.39
2023-04-03T09:52:35.638Z,7.94
2023-04-03T09:55:43.324Z,7.96
2023-04-03T09:58:50.359Z,8.94
2023-04-03T10:02:14.411Z,8.77
2023-04-03T10:05:31.701Z,8.89
2023-04-03T10:08:34.038Z,8.71
2023-04-03T10:11:35.455Z,8.14
2023-04-03T10:14:42.204Z,7.97
2023-04-03T10:17:56.416Z,7.78
2023-04-03T10:21:14.534Z,7.95
2023-04-03T10:24:29.597Z,7.91
2023-04-03T10:27:53.835Z,7.68
2023-04-03T10:31:08.501Z,8.26
2023-04-03T10:34:19.208Z,8.02
2023-04-03T10:37:29.662Z,7.66
2023-04-03T10:40:51.317Z,6.84
2023-04-03T10:44:14.742Z,6.63
2023-04-03T10:47:32.714Z,6.95
2023-04-03T10:51:03.712Z,6.85
2023-04-03T10:54:21.973Z,7.55
2023-04-03T10:57:23.944Z,8.37
2023-04-03T11:00:44.668Z,8.22
2023-04-03T11:03:59.480Z,9.08
2023-04-03T11:07:19.773Z,8.31
2023-04-03T11:10:26.278Z,8.91
2023-04-03T11:13:41.820Z,8.64
2023-04-03T11:16:53.558Z,7.92
2023-04-03T11:19:55.753Z,7.02
2023-04-03T11:23:26.768Z,6.85
2023-04-03T11:26:30.518Z,6.80
2023-04-03T11:29:39.325Z,6.52
2023-04-03T11:32:50.585Z,6.28
2023-04-03T11:35:58.305Z,7.14
2023-04-03T11:39:06.906Z,6.86
2023-04-03T11:42:16.825Z,6.69
2023-04-03T11:45:33.863Z,6.93
2023-04-03T11:48:35.256Z,7.51
2023-04-03T11:51:39.686Z,7.11
2023-04-03T11:54:44.884Z,6.52
2023-04-03T11:57:59.108Z,6.45
2023-04-03T12:01:03.865Z,6.52
2023-04-03T12:04:10.979Z,6.26
2023-04-03T12:07:17.705Z,6.58
2023-04-03T12:10:30.842Z,6.78
2023-04-03T12:13:32.938Z,6.93
2023-04-03T12:16:37.830Z,6.61
2023-04-03T12:19:44.436Z,7.20
2023-04-03T12:23:25.048Z,7.69
2023-04-03T12:26:32.425Z,6.99
2023-04-03T12:30:02.400Z,6.55
2023-04-03T12:33:46.133Z,6.27
2023-04-03T12:36:55.602Z,6.18
2023-04-03T12:40:07.622Z,6.03
2023-04-03T12:43:40.646Z,6.01
2023-04-03T12:47:01.304Z,5.55
2023-04-03T12:50:05.844Z,5.89
2023-04-03T12:53:14.947Z,6.22
2023-04-03T12:56:24.614Z,6.31
2023-04-03T12:59:27.248Z,5.74
2023-04-03T13:02:30.996Z,6.13
2023-04-03T13:05:37.121Z,6.10
2023-04-03T13:08:39.078Z,6.27
2023-04-03T13:11:41.836Z,6.46
2023-04-03T13:14:54.078Z,6.59
2023-04-03T13:17:55.849Z,6.42
2023-04-03T13:21:08.689Z,6.38
2023-04-03T13:24:15.364Z,6.08
2023-04-03T13:27:20.503Z,5.93
2023-04-03T13:30:28.288Z,6.05
2023-04-03T13:33:32.593Z,6.20
2023-04-03T13:36:36.141Z,6.01
2023-04-03T13:39:40.298Z,5.98
2023-04-03T13:42:42.415Z,5.91
2023-04-03T13:45:55.856Z,6.00
2023-04-03T13:48:57.771Z,6.12
2023-04-03T13:52:07.198Z,6.07
2023-04-03T13:55:26.228Z,5.90
2023-04-03T13:58:29.702Z,6.14
2023-04-03T14:01:44.280Z,6.37
2023-04-03T14:04:47.422Z,6.27
2023-04-03T14:07:49.057Z,6.24
2023-04-03T14:10:50.884Z,6.07
2023-04-03T14:13:55.619Z,5.98
2023-04-03T14:17:00.874Z,5.93
2023-04-03T14:20:02.849Z,6.13
2023-04-03T14:23:04.359Z,5.76
2023-04-03T14:26:19.136Z,5.81
2023-04-03T14:29:21.439Z,6.09
2023-04-03T14:32:23.438Z,6.30
2023-04-03T14:35:25.132Z,6.18
2023-04-03T14:38:31.413Z,6.34
2023-04-03T14:41:35.775Z,6.33
2023-04-03T14:44:37.316Z,6.30
2023-04-03T14:47:52.830Z,5.86
2023-04-03T14:51:04.677Z,5.78
2023-04-03T14:54:13.322Z,5.69
2023-04-03T14:57:15.702Z,5.84
2023-04-03T15:00:21.698Z,5.72
2023-04-03T15:03:25.015Z,5.67
2023-04-03T15:06:28.187Z,5.60
2023-04-03T15:09:32.038Z,5.82
2023-04-03T15:12:33.569Z,5.97
2023-04-03T15:15:35.573Z,5.95
2023-04-03T15:18:38.894Z,6.43
2023-04-03T15:21:40.836Z,6.33
2023-04-03T15:24:42.979Z,6.56
2023-04-03T15:27:44.618Z,6.57
2023-04-03T15:30:46.249Z,6.22
2023-04-03T15:33:47.817Z,5.98
2023-04-03T15:36:49.358Z,5.78
2023-04-03T15:39:51.042Z,5.80
2023-04-03T15:42:53.914Z,5.75
2023-04-03T15:45:57.896Z,5.49
2023-04-03T15:48:59.523Z,5.52
2023-04-03T15:52:01.350Z,5.72
2023-04-03T15:55:02.919Z,6.07
2023-04-03T15:58:04.698Z,6.63
2023-04-03T16:01:06.376Z,6.61
2023-04-03T16:04:08.565Z,6.11
2023-04-03T16:07:10.181Z,5.82
2023-04-03T16:10:12.146Z,5.65
2023-04-03T16:13:14.477Z,5.59
2023-04-03T16:16:16.301Z,5.54
2023-04-03T16:19:17.975Z,5.50
2023-04-03T16:22:21.545Z,5.55
2023-04-03T16:25:23.265Z,5.67
2023-04-03T16:28:24.829Z,5.76
2023-04-03T16:31:26.630Z,5.60
2023-04-03T16:34:28.365Z,5.60
2023-04-03T16:37:31.082Z,5.79
2023-04-03T16:40:34.849Z,5.81
2023-04-03T16:43:39.368Z,5.78
2023-04-03T16:46:41.063Z,5.59
2023-04-03T16:49:42.830Z,5.46
2023-04-03T16:52:46.373Z,5.36
2023-04-03T16:55:48.664Z,5.51
2023-04-03T16:58:50.347Z,5.45
2023-04-03T17:01:51.995Z,5.40
2023-04-03T17:04:54.262Z,5.36
2023-04-03T17:07:55.879Z,5.36
2023-04-03T17:10:57.428Z,5.06
2023-04-03T17:13:59.322Z,5.02
2023-04-03T17:17:01.018Z,5.02
2023-04-03T17:20:03.044Z,4.90
2023-04-03T17:23:05.459Z,4.91
2023-04-03T17:26:07.032Z,4.94
2023-04-03T17:29:10.051Z,4.71
2023-04-03T17:32:11.781Z,4.90
2023-04-03T17:35:13.523Z,4.80
2023-04-03T17:38:15.274Z,4.67
2023-04-03T17:41:16.890Z,4.67
2023-04-03T17:44:18.502Z,4.65
2023-04-03T17:47:20.033Z,4.52
2023-04-03T17:50:21.630Z,4.45
2023-04-03T17:53:23.225Z,4.16
2023-04-03T17:56:27.091Z,4.12
2023-04-03T17:59:28.779Z,4.05
2023-04-03T18:02:32.753Z,3.92
2023-04-03T18:05:34.690Z,3.81
2023-04-03T18:08:41.545Z,3.59
2023-04-03T18:11:43.937Z,3.48
2023-04-03T18:14:45.898Z,3.61
2023-04-03T18:17:50.076Z,3.49
2023-04-03T18:20:51.864Z,3.43
2023-04-03T18:23:54.506Z,3.44
2023-04-03T18:26:56.918Z,3.32
2023-04-03T18:30:06.543Z,3.43
2023-04-03T18:33:08.120Z,3.32
2023-04-03T18:36:09.804Z,3.30
2023-04-03T18:39:11.342Z,3.10
2023-04-03T18:42:16.696Z,3.08
2023-04-03T18:45:21.034Z,3.03
2023-04-03T18:48:22.654Z,2.85
2023-04-03T18:51:24.418Z,2.80
2023-04-03T18:54:26.017Z,2.67
2023-04-03T18:57:36.996Z,2.60
2023-04-03T19:00:38.753Z,2.56
2023-04-03T19:03:40.386Z,2.28
2023-04-03T19:06:42.047Z,2.23
2023-04-03T19:09:43.742Z,2.10
2023-04-03T19:12:48.581Z,1.99
2023-04-03T19:15:52.033Z,1.95
2023-04-03T19:18:53.787Z,2.08
2023-04-03T19:21:55.381Z,1.95
2023-04-03T19:24:56.914Z,1.87
2023-04-03T19:27:58.487Z,1.89
2023-04-03T19:31:00.403Z,1.77
2023-04-03T19:34:03.703Z,1.67
2023-04-03T19:37:06.144Z,1.51
2023-04-03T19:40:09.871Z,1.71
2023-04-03T19:43:12.240Z,1.46
2023-04-03T19:46:13.968Z,1.51
2023-04-03T19:49:15.804Z,1.52
2023-04-03T19:52:17.360Z,1.53
2023-04-03T19:55:19.041Z,1.27
2023-04-03T19:58:20.640Z,1.31
2023-04-03T20:01:24.352Z,1.22
2023-04-03T20:04:26.173Z,1.08
2023-04-03T20:07:28.478Z,1.07
2023-04-03T20:10:30.503Z,1.03
2023-04-03T20:13:33.201Z,0.92
2023-04-03T20:16:35.548Z,0.89
2023-04-03T20:19:37.730Z,0.48
2023-04-03T20:22:39.599Z,0.58
2023-04-03T20:25:54.063Z,0.42
2023-04-03T20:29:03.444Z,0.41
2023-04-03T20:32:08.670Z,0.33
2023-04-03T20:35:10.610Z,0.57
2023-04-03T20:38:15.315Z,0.50
2023-04-03T20:41:16.891Z,0.60
2023-04-03T20:44:19.782Z,0.46
2023-04-03T20:47:21.292Z,0.41
2023-04-03T20:50:23.074Z,0.36
2023-04-03T20:53:24.888Z,0.32
2023-04-03T20:56:32.896Z,0.23
2023-04-03T20:59:35.125Z,0.18
2023-04-03T21:02:36.754Z,0.23
2023-04-03T21:05:39.176Z,0.14
2023-04-03T21:09:18.430Z,0.09
2023-04-03T21:12:57.739Z,-0.03
2023-04-03T21:16:00.469Z,0.03
2023-04-03T21:19:06.256Z,0.04
2023-04-03T21:22:10.735Z,0.04
2023-04-03T21:25:15.853Z,-0.01
2023-04-03T21:28:23.504Z,-0.08
2023-04-03T21:31:26.120Z,0.12
2023-04-03T21:34:29.044Z,0.09
2023-04-03T21:37:30.905Z,-0.19
2023-04-03T21:40:32.659Z,-0.17
2023-04-03T21:43:35.009Z,-0.12
2023-04-03T21:46:37.013Z,-0.13
2023-04-03T21:49:38.606Z,-0.11
2023-04-03T21:52:40.228Z,-0.08
2023-04-03T21:55:41.838Z,-0.08
2023-04-03T21:58:43.467Z,-0.10
2023-04-03T22:01:45.099Z,0.01
2023-04-03T22:04:47.623Z,-0.26
2023-04-03T22:07:49.202Z,-0.16
2023-04-03T22:10:51.475Z,0.02
2023-04-03T22:13:53.820Z,-0.16
2023-04-03T22:16:58.629Z,-0.12
2023-04-03T22:20:00.628Z,-0.15
2023-04-03T22:23:02.347Z,-0.06
2023-04-03T22:26:07.994Z,-0.21
2023-04-03T22:29:09.910Z,0.02
2023-04-03T22:32:11.576Z,-0.03
2023-04-03T22:35:13.694Z,-0.30
2023-04-03T22:38:15.394Z,-0.11
2023-04-03T22:41:17.425Z,-0.25
2023-04-03T22:44:18.940Z,-0.13
2023-04-03T22:47:20.611Z,-0.24
2023-04-03T22:50:22.501Z,-0.32
2023-04-03T22:53:24.094Z,-0.31
2023-04-03T22:56:26.298Z,-0.36
2023-04-03T22:59:28.048Z,-0.37
2023-04-03T23:02:29.928Z,-0.49
2023-04-03T23:05:31.778Z,-0.38
2023-04-03T23:08:35.007Z,-0.30
2023-04-03T23:11:37.044Z,-0.30
2023-04-03T23:14:38.632Z,-0.41
2023-04-03T23:17:40.509Z,-0.44
2023-04-03T23:20:42.201Z,-0.31
2023-04-03T23:23:43.846Z,-0.34
2023-04-03T23:26:45.502Z,-0.27
2023-04-03T23:29:47.369Z,-0.10
2023-04-03T23:32:49.018Z,-0.10
2023-04-03T23:35:52.556Z,-0.03
2023-04-03T23:38:57.309Z,-0.02
2023-04-03T23:41:58.898Z,-0.21
2023-04-03T23:45:00.743Z,-0.10
2023-04-03T23:48:02.315Z,0.02
2023-04-03T23:51:03.966Z,0.11
2023-04-03T23:54:05.753Z,0.45
2023-04-03T23:57:07.355Z,0.48
